Time;durP1;ratioP1;P1;durP2;ratioP2;P2;SDS_P1;SDS_P2;PMS_P1;PMS_P2;Temp;Humidity;BMP_temperature;BMP_pressure;BME280_temperature;BME280_humidity;BME280_pressure;Samples;Min_cycle;Max_cycle;Signal;HPM_P1;HPM_P2
2022/08/14 00:02:26;;;;;;;4.67;1.93;;;;;;;-145.69;86.24;71016.38;5113771;28;20224;-77
2022/08/14 00:04:54;;;;;;;3.40;2.10;;;;;;;-145.69;86.81;71020.34;5112664;28;20236;-76
2022/08/14 00:07:20;;;;;;;3.20;2.20;;;;;;;-145.69;86.41;71020.34;5113993;28;20250;-76
2022/08/14 00:09:47;;;;;;;4.33;2.17;;;;;;;-145.69;85.97;71018.38;5109377;28;20202;-75
2022/08/14 00:12:13;;;;;;;4.40;2.23;;;;;;;-145.69;85.88;71020.34;5073096;28;20712;-77
2022/08/14 00:14:40;;;;;;;5.27;1.97;;;;;;;-145.69;84.85;71020.34;5073137;28;20199;-77
2022/08/14 00:17:06;;;;;;;2.47;1.90;;;;;;;-145.69;84.69;71016.38;5073026;28;20718;-76
2022/08/14 00:19:32;;;;;;;3.43;2.00;;;;;;;-145.69;83.66;71008.41;5072922;28;20203;-77
2022/08/14 00:22:00;;;;;;;4.73;2.27;;;;;;;-145.69;83.01;70996.47;5082662;28;20189;-77
2022/08/14 00:24:27;;;;;;;3.27;1.90;;;;;;;-145.69;81.62;70982.56;5113717;28;20212;-78
2022/08/14 00:26:53;;;;;;;3.13;1.83;;;;;;;-145.69;82.11;70980.56;5113358;28;20194;-77
2022/08/14 00:29:19;;;;;;;3.57;2.20;;;;;;;-145.69;80.92;70978.56;5113522;28;20204;-77
2022/08/14 00:31:46;;;;;;;4.33;2.13;;;;;;;-145.69;81.09;70980.56;5112179;28;20435;-77
2022/08/14 00:34:12;;;;;;;4.53;2.30;;;;;;;-145.69;81.04;70992.50;5104312;28;20221;-77
2022/08/14 00:36:39;;;;;;;5.30;2.07;;;;;;;-145.69;82.87;71000.47;5093148;28;20202;-77
2022/08/14 00:39:07;;;;;;;4.20;2.23;;;;;;;-145.69;80.96;70984.53;5093156;28;20209;-77
2022/08/14 00:41:34;;;;;;;4.50;1.97;;;;;;;-145.69;82.50;70984.53;5093052;28;20228;-75
2022/08/14 00:44:00;;;;;;;3.27;2.03;;;;;;;-145.69;82.80;70984.53;5092849;28;20236;-77
2022/08/14 00:46:27;;;;;;;2.80;1.80;;;;;;;-145.69;83.31;71000.47;5093093;28;20198;-77
2022/08/14 00:48:53;;;;;;;3.63;2.10;;;;;;;-145.69;84.03;71008.41;5092324;28;20253;-77
2022/08/14 00:51:21;;;;;;;2.63;2.30;;;;;;;-145.69;84.95;71022.34;5092710;28;20564;-77
2022/08/14 00:53:49;;;;;;;3.87;2.23;;;;;;;-145.69;86.91;71032.28;5092972;28;20552;-76
2022/08/14 00:56:17;;;;;;;2.93;2.10;;;;;;;-145.69;85.80;71032.28;5092865;28;20194;-76
2022/08/14 00:58:45;;;;;;;4.87;1.90;;;;;;;-145.69;85.85;71038.25;5103142;28;20232;-78
2022/08/14 01:01:13;;;;;;;2.93;2.20;;;;;;;-145.69;84.79;71034.28;5113372;28;20288;-77
2022/08/14 01:03:41;;;;;;;3.10;2.00;;;;;;;-145.69;83.27;71024.34;5113268;28;20252;-76
2022/08/14 01:06:08;;;;;;;3.43;2.07;;;;;;;-145.69;82.58;71020.34;5112972;28;20229;-77
2022/08/14 01:08:37;;;;;;;3.03;2.20;;;;;;;-145.69;82.21;71036.28;5113233;28;20204;-75
2022/08/14 01:11:05;;;;;;;2.57;1.93;;;;;;;-145.69;84.20;71066.13;5100319;28;20680;-75
2022/08/14 01:13:34;;;;;;;3.00;1.90;;;;;;;-145.69;83.77;71074.09;5092620;28;20206;-76
2022/08/14 01:16:03;;;;;;;5.43;2.00;;;;;;;-145.69;85.05;71074.09;5093810;28;20205;-77
2022/08/14 01:21:16;;;;;;;3.03;2.37;;;;;;;-145.69;87.13;71086.03;5096544;28;20196;-76
2022/08/14 01:23:47;;;;;;;2.70;1.97;;;;;;;-145.69;86.23;71072.09;5111572;28;20225;-78
2022/08/14 01:26:19;;;;;;;2.03;1.80;;;;;;;-145.69;85.40;71056.16;5117029;27;20182;-77
2022/08/14 01:28:47;;;;;;;2.60;2.13;;;;;;;-145.69;83.97;71042.25;5116905;28;20232;-75
2022/08/14 01:31:17;;;;;;;3.53;1.80;;;;;;;-145.69;83.29;71038.25;5116863;28;20258;-77
2022/08/14 01:33:47;;;;;;;4.13;2.10;;;;;;;-145.69;84.95;71046.22;5115923;28;20197;-77
2022/08/14 01:36:15;;;;;;;2.27;1.50;;;;;;;-145.69;87.14;71060.16;5096233;28;20620;-75
2022/08/14 01:38:47;;;;;;;4.53;2.23;;;;;;;-145.69;87.48;71068.13;5096357;28;20281;-76
2022/08/14 01:41:18;;;;;;;3.40;2.00;;;;;;;-145.69;86.48;71068.13;5094065;28;20251;-77
2022/08/14 01:43:48;;;;;;;3.73;2.00;;;;;;;-145.69;85.19;71060.16;5091982;28;20317;-77
2022/08/14 01:46:15;;;;;;;2.00;1.80;;;;;;;-145.69;84.92;71048.22;5087140;28;20232;-77
2022/08/14 01:48:43;;;;;;;1.97;1.77;;;;;;;-145.69;83.66;71032.28;5114645;28;20197;-77
2022/08/14 01:51:11;;;;;;;6.97;2.00;;;;;;;-145.69;83.53;71042.25;5116104;28;20745;-77
2022/08/14 01:53:40;;;;;;;2.57;1.87;;;;;;;-145.69;83.50;71036.28;5116297;28;20196;-77
2022/08/14 01:56:08;;;;;;;3.57;2.20;;;;;;;-145.69;83.71;71042.25;5114584;28;20197;-76
2022/08/14 01:58:35;;;;;;;6.00;1.80;;;;;;;-145.69;84.14;71044.22;5095818;28;20202;-76
2022/08/14 02:01:03;;;;;;;3.47;2.03;;;;;;;-145.69;84.24;71040.25;5095507;28;20198;-76
2022/08/14 02:03:34;;;;;;;3.87;1.90;;;;;;;-145.69;84.79;71040.25;5095622;28;20229;-76
2022/08/14 02:06:02;;;;;;;2.20;1.90;;;;;;;-145.69;85.07;71034.28;5095772;28;20234;-77
2022/08/14 02:08:29;;;;;;;3.13;1.93;;;;;;;-145.69;86.29;71044.22;5116148;28;20200;-76
2022/08/14 02:13:42;;;;;;;2.57;1.93;;;;;;;-145.69;86.58;71050.22;5115597;28;20201;-77
2022/08/14 02:16:09;;;;;;;3.10;2.07;;;;;;;-145.69;87.33;71048.22;5114123;28;20734;-77
2022/08/14 02:18:36;;;;;;;2.60;1.93;;;;;;;-145.69;86.11;71042.25;5095262;28;20206;-78
2022/08/14 02:21:03;;;;;;;3.23;1.87;;;;;;;-145.69;85.89;71048.22;5095167;28;20671;-77
2022/08/14 02:23:31;;;;;;;2.73;1.87;;;;;;;-145.69;85.85;71048.22;5095418;28;20317;-77
2022/08/14 02:25:58;;;;;;;3.80;2.17;;;;;;;-145.69;85.34;71048.22;5095279;28;20205;-77
2022/08/14 02:28:25;;;;;;;2.97;1.90;;;;;;;-145.69;84.80;71034.28;5114167;28;20554;-77
2022/08/14 02:30:52;;;;;;;5.07;1.97;;;;;;;-145.69;83.95;71032.28;5115424;28;20197;-76
2022/08/14 02:33:22;;;;;;;3.13;1.80;;;;;;;-145.69;84.00;71036.28;5115718;28;20202;-76
2022/08/14 02:35:50;;;;;;;3.13;1.90;;;;;;;-145.69;84.33;71038.25;5115373;28;20201;-77
2022/08/14 02:38:17;;;;;;;4.93;2.17;;;;;;;-145.69;85.23;71044.22;5096384;28;20201;-76
2022/08/14 02:40:43;;;;;;;4.10;2.10;;;;;;;-145.69;85.95;71046.22;5094966;28;20210;-76
2022/08/14 02:43:10;;;;;;;2.53;1.93;;;;;;;-145.69;86.39;71052.19;5094697;28;20576;-75
2022/08/14 02:45:36;;;;;;;3.27;2.00;;;;;;;-145.69;86.51;71064.13;5094765;28;20198;-77
2022/08/14 02:48:06;;;;;;;3.50;1.63;;;;;;;-145.69;87.19;71052.19;5111304;28;20205;-76
2022/08/14 02:50:32;;;;;;;2.40;1.90;;;;;;;-145.69;87.51;71046.22;5115166;28;20198;-77
2022/08/14 02:52:59;;;;;;;5.00;2.00;;;;;;;-145.69;87.65;71050.22;5114983;28;20201;-76
2022/08/14 02:55:25;;;;;;;4.97;2.13;;;;;;;-145.69;88.04;71052.19;5115183;28;20198;-77
2022/08/14 02:57:53;;;;;;;3.53;2.00;;;;;;;-145.69;88.95;71048.22;5099962;28;20198;-76
2022/08/14 03:00:21;;;;;;;2.63;2.10;;;;;;;-145.69;88.88;71048.22;5094559;28;20676;-77
2022/08/14 03:02:49;;;;;;;2.90;2.00;;;;;;;-145.69;88.55;71036.28;5094513;28;20205;-77
2022/08/14 03:05:17;;;;;;;2.93;1.90;;;;;;;-145.69;89.21;71044.22;5094274;28;20685;-78
2022/08/14 03:07:44;;;;;;;5.80;1.97;;;;;;;-145.69;88.09;71028.31;5107709;28;20212;-77
2022/08/14 03:10:11;;;;;;;2.63;2.00;;;;;;;-145.69;88.71;71032.28;5102556;28;20205;-76
2022/08/14 03:12:37;;;;;;;5.83;2.20;;;;;;;-145.69;88.94;71024.34;5093973;28;20591;-76
2022/08/14 03:15:09;;;;;;;7.07;2.27;;;;;;;-145.69;88.87;71020.34;5094311;28;20231;-77
2022/08/14 03:17:35;;;;;;;2.97;2.20;;;;;;;-145.69;88.70;71022.34;5102196;28;20194;-76
2022/08/14 03:20:03;;;;;;;3.73;2.37;;;;;;;-145.69;88.62;71020.34;5114690;28;20208;-76
2022/08/14 03:22:32;;;;;;;3.22;2.20;;;;;;;-145.69;88.79;71032.28;5113726;28;21072;-76
2022/08/14 03:24:59;;;;;;;2.03;1.87;;;;;;;-145.69;88.67;71024.34;5114369;28;20225;-76
2022/08/14 03:27:30;;;;;;;2.50;2.10;;;;;;;-145.69;88.20;71026.31;5107708;28;20603;-78
2022/08/14 03:29:56;;;;;;;3.07;1.87;;;;;;;-145.69;88.50;71028.31;5094019;28;20209;-76
2022/08/14 03:32:23;;;;;;;2.43;2.23;;;;;;;-145.69;87.92;71020.34;5093799;28;20202;-77
2022/08/14 03:34:49;;;;;;;3.03;2.30;;;;;;;-145.69;87.70;71016.38;5094048;28;20205;-77
2022/08/14 03:37:16;;;;;;;3.50;2.10;;;;;;;-145.69;88.38;71020.34;5112642;28;20193;-77
2022/08/14 03:39:44;;;;;;;2.70;2.03;;;;;;;-145.69;89.54;71020.34;5114077;28;20197;-77
2022/08/14 03:42:12;;;;;;;2.27;2.07;;;;;;;-145.69;89.72;71028.31;5114193;28;20197;-76
2022/08/14 03:44:40;;;;;;;3.90;2.40;;;;;;;-145.69;90.42;71024.34;5099932;28;20217;-76
2022/08/14 03:47:06;;;;;;;2.40;2.20;;;;;;;-145.69;89.88;71032.28;5110458;28;20220;-77
2022/08/14 03:49:33;;;;;;;5.67;2.20;;;;;;;-145.69;89.89;71024.34;5114028;28;20204;-77
2022/08/14 03:52:04;;;;;;;2.80;2.40;;;;;;;-145.69;91.39;71032.28;5114055;27;20205;-78
2022/08/14 03:54:34;;;;;;;7.07;2.37;;;;;;;-145.69;93.39;71032.28;5113720;28;20201;-77
2022/08/14 03:57:03;;;;;;;3.67;2.27;;;;;;;-145.69;94.37;71024.34;5098499;28;20190;-77
2022/08/14 03:59:30;;;;;;;3.20;2.43;;;;;;;-145.69;95.28;71024.34;5093714;28;20243;-76
2022/08/14 04:01:56;;;;;;;3.60;2.33;;;;;;;-145.69;95.89;71022.34;5093366;28;20202;-77
2022/08/14 04:04:23;;;;;;;3.23;2.37;;;;;;;-145.69;93.93;71000.47;5093216;28;20283;-76
2022/08/14 04:06:50;;;;;;;3.20;2.50;;;;;;;-145.69;94.52;71002.44;5106195;28;20291;-77
2022/08/14 04:09:17;;;;;;;3.73;2.37;;;;;;;-145.69;92.31;71000.47;5113879;28;20201;-77
2022/08/14 04:11:44;;;;;;;2.63;2.33;;;;;;;-145.69;89.36;70962.66;5113751;28;20643;-77
2022/08/14 04:14:13;;;;;;;3.70;2.50;;;;;;;-145.69;91.10;70974.59;5113805;28;20233;-77
2022/08/14 04:16:42;;;;;;;4.20;2.17;;;;;;;-145.69;91.54;70978.56;5112857;28;20609;-77
2022/08/14 04:19:08;;;;;;;4.37;2.40;;;;;;;-145.69;89.55;70978.56;5113429;28;20224;-77
2022/08/14 04:21:35;;;;;;;4.27;2.20;;;;;;;-145.69;87.74;70934.81;5113679;28;20212;-77
2022/08/14 04:24:02;;;;;;;3.27;2.10;;;;;;;-145.69;88.15;70936.78;5113413;28;20228;-77
2022/08/14 04:26:30;;;;;;;4.70;2.00;;;;;;;-145.69;88.14;70934.81;5104414;28;20216;-76
2022/08/14 04:28:57;;;;;;;4.73;2.67;;;;;;;-145.69;87.49;70930.81;5093241;28;20571;-76
2022/08/14 04:31:25;;;;;;;3.60;2.30;;;;;;;-145.69;88.50;70930.81;5096057;28;20194;-77
2022/08/14 04:33:52;;;;;;;2.53;2.23;;;;;;;-145.69;87.21;70932.81;5113287;28;20197;-77
2022/08/14 04:36:19;;;;;;;8.03;1.90;;;;;;;-145.69;87.43;70924.84;5113416;28;20259;-76
2022/08/14 04:44:14;;;;;;;5.40;2.27;;;;;;;-145.69;87.24;70897.00;5092652;28;20351;-76
2022/08/14 04:48:11;;;;;;;4.80;2.67;;;;;;;-145.69;85.80;70891.03;5093141;28;20226;-77
2022/08/14 04:49:29;;;;;;;7.33;2.50;;;;;;;-145.69;87.08;70889.03;5092742;28;20194;-76
2022/08/14 04:51:56;;;;;;;4.20;2.50;;;;;;;-145.69;87.76;70895.00;5101655;28;20199;-77
2022/08/14 04:54:25;;;;;;;2.43;1.90;;;;;;;-145.69;86.53;70875.13;5117454;28;20242;-75
2022/08/14 04:56:52;;;;;;;3.03;2.00;;;;;;;-145.69;83.89;70851.25;5117060;28;20240;-76
2022/08/14 04:59:18;;;;;;;3.60;1.83;;;;;;;-145.69;83.32;70821.41;5117326;28;20193;-76
2022/08/14 05:01:46;;;;;;;4.17;2.30;;;;;;;-145.69;79.41;70759.72;5112687;28;20201;-76
2022/08/14 05:04:12;;;;;;;2.72;2.20;;;;;;;-145.69;77.30;70733.84;5096668;28;20242;-75
2022/08/14 05:06:39;;;;;;;6.82;2.33;;;;;;;-145.69;76.74;70713.97;5096715;28;20549;-75
2022/08/14 05:09:06;;;;;;;2.67;1.88;;;;;;;-145.69;76.66;70713.97;5096599;28;20229;-75
2022/08/14 05:11:35;;;;;;;4.90;2.00;;;;;;;-145.69;75.67;70696.06;5098877;28;20202;-75
2022/08/14 05:14:01;;;;;;;9.10;2.00;;;;;;;-145.69;71.85;70626.41;5117199;28;20205;-76
2022/08/14 05:16:30;;;;;;;3.97;2.15;;;;;;;-145.69;70.51;70614.47;5116971;28;20544;-77
2022/08/14 05:18:58;;;;;;;2.60;2.00;;;;;;;-145.69;74.59;70640.34;5117116;28;20236;-77
2022/08/14 05:21:28;;;;;;;3.78;2.00;;;;;;;-145.69;75.34;70668.19;5114911;28;20435;-77
2022/08/14 05:23:54;;;;;;;4.93;2.33;;;;;;;-145.69;74.07;70684.13;5096209;28;20222;-78
2022/08/14 05:26:21;;;;;;;2.30;1.60;;;;;;;-145.69;72.96;70676.16;5095960;28;20655;-78
2022/08/14 05:28:48;;;;;;;4.28;1.75;;;;;;;-145.69;73.60;70670.19;5096307;28;20209;-81
2022/08/14 05:31:17;;;;;;;2.28;1.80;;;;;;;-145.69;75.47;70670.19;5096449;28;20201;-80
2022/08/14 05:33:44;;;;;;;2.30;1.80;;;;;;;-145.69;76.06;70678.16;5116488;28;20682;-79
2022/08/14 05:36:13;;;;;;;3.35;1.92;;;;;;;-145.69;75.75;70666.22;5116619;28;20198;-78
2022/08/14 05:38:41;;;;;;;4.93;1.92;;;;;;;-145.69;74.39;70642.34;5116727;28;20274;-78
2022/08/14 05:41:11;;;;;;;2.45;2.00;;;;;;;-145.69;72.81;70626.41;5116096;28;20555;-77
2022/08/14 05:43:39;;;;;;;7.10;2.17;;;;;;;-145.69;71.49;70608.53;5116387;28;20209;-78
2022/08/14 05:46:06;;;;;;;2.65;2.00;;;;;;;-145.69;71.51;70592.59;5116458;28;20293;-77
2022/08/14 05:48:32;;;;;;;4.55;2.10;;;;;;;-145.69;69.98;70574.69;5111978;28;20442;-78
2022/08/14 05:50:59;;;;;;;4.07;1.70;;;;;;;-145.69;67.65;70540.88;5077769;28;20687;-79
2022/08/14 05:53:27;;;;;;;4.15;2.03;;;;;;;-145.69;69.78;70532.91;5075452;28;20206;-77
2022/08/14 05:55:55;;;;;;;2.28;2.00;;;;;;;-145.69;68.85;70526.94;5075730;28;20210;-77
2022/08/14 05:58:21;;;;;;;5.85;2.03;;;;;;;-145.69;67.55;70513.03;5077565;28;20774;-77
2022/08/14 06:00:48;;;;;;;4.47;2.00;;;;;;;-145.69;66.31;70489.16;5116266;28;20202;-81
2022/08/14 06:03:17;;;;;;;2.17;1.70;;;;;;;-145.69;65.32;70443.41;5114608;28;20225;-77
2022/08/14 06:05:44;;;;;;;3.05;1.90;;;;;;;-145.69;64.09;70417.53;5115698;28;20691;-77
2022/08/14 06:08:16;;;;;;;3.22;1.92;;;;;;;-145.69;63.96;70399.63;5115970;28;20197;-78
2022/08/14 06:10:44;;;;;;;3.25;1.90;;;;;;;-145.69;62.44;70375.75;5111528;28;20217;-78
2022/08/14 06:13:11;;;;;;;3.03;2.17;;;;;;;-145.69;61.57;70351.88;5095490;28;20206;-76
2022/08/14 06:15:37;;;;;;;3.58;1.98;;;;;;;-145.69;61.40;70343.94;5095313;28;20210;-76
2022/08/14 06:18:04;;;;;;;6.57;1.90;;;;;;;-145.69;60.16;70312.09;5095326;28;20725;-76
2022/08/14 06:20:30;;;;;;;8.50;2.25;;;;;;;-145.69;60.06;70288.22;5095596;28;20197;-79
2022/08/14 06:22:57;;;;;;;2.47;1.88;;;;;;;-145.69;58.75;70270.31;5099625;28;20647;-77
2022/08/14 06:25:24;;;;;;;2.28;1.90;;;;;;;-145.69;57.90;70252.41;5115720;28;20229;-79
2022/08/14 06:27:52;;;;;;;3.95;1.92;;;;;;;-145.69;57.12;70224.56;5115158;28;20662;-78
2022/08/14 06:30:20;;;;;;;3.92;1.80;;;;;;;-145.69;56.19;70200.69;5101045;28;20202;-77
2022/08/14 06:32:48;;;;;;;2.78;2.10;;;;;;;-145.69;54.92;70166.88;5094992;28;20255;-76
2022/08/14 06:35:17;;;;;;;3.22;2.00;;;;;;;-145.69;53.58;70141.03;5095211;28;20198;-77
2022/08/14 06:37:45;;;;;;;3.65;1.70;;;;;;;-145.69;53.90;70117.16;5094690;28;20296;-76
2022/08/14 06:40:14;;;;;;;4.30;1.92;;;;;;;-145.69;52.70;70097.25;5107058;28;20250;-76
2022/08/14 06:42:41;;;;;;;6.50;1.75;;;;;;;-145.69;52.16;70075.38;5115190;28;20204;-77
2022/08/14 06:45:10;;;;;;;3.00;2.00;;;;;;;-145.69;52.01;70053.50;5114790;28;20268;-77
2022/08/14 06:47:39;;;;;;;2.92;1.98;;;;;;;-145.69;50.83;70033.59;5115052;28;20552;-76
2022/08/14 06:50:09;;;;;;;2.88;1.67;;;;;;;-145.69;51.44;70005.75;5115358;28;20212;-77
2022/08/14 06:52:36;;;;;;;2.08;1.88;;;;;;;-145.69;50.04;69987.84;5102071;28;20281;-76
2022/08/14 06:55:03;;;;;;;1.98;1.63;;;;;;;-145.69;50.28;69977.91;5094629;28;20206;-78
2022/08/14 06:57:36;;;;;;;1.90;1.38;;;;;;;-145.69;49.23;69965.97;5093924;28;20194;-76
2022/08/14 07:00:04;;;;;;;2.15;1.67;;;;;;;-145.69;48.57;69952.03;5094776;28;20198;-75
2022/08/14 07:07:59;;;;;;;2.90;1.75;;;;;;;-145.69;46.13;69940.13;5114978;28;20196;-77
2022/08/14 07:10:26;;;;;;;2.63;1.52;;;;;;;-145.69;45.23;69926.19;5114761;28;20675;-77
2022/08/14 07:12:52;;;;;;;6.80;1.63;;;;;;;-145.69;44.30;69912.25;5114447;27;20240;-76
2022/08/14 07:15:19;;;;;;;4.00;1.80;;;;;;;-145.69;44.35;69902.31;5099693;28;20202;-77
2022/08/14 07:17:50;;;;;;;2.55;1.88;;;;;;;-145.69;43.53;69902.31;5082028;28;20203;-76
2022/08/14 07:20:19;;;;;;;2.97;1.60;;;;;;;-145.69;43.10;69906.28;5073814;28;20657;-77
2022/08/14 07:22:45;;;;;;;2.85;1.80;;;;;;;-145.69;44.00;69898.34;5073215;28;20203;-79
2022/08/14 07:25:12;;;;;;;3.50;1.67;;;;;;;-145.69;43.41;69888.41;5073950;28;20569;-78
2022/08/14 07:27:39;;;;;;;2.42;1.70;;;;;;;-145.69;44.42;69890.38;5083668;28;20190;-75
2022/08/14 07:30:06;;;;;;;1.58;1.40;;;;;;;-145.69;43.46;69892.38;5114412;28;20274;-75
2022/08/14 07:32:33;;;;;;;1.77;1.58;;;;;;;-145.69;43.28;69862.53;5113565;28;20233;-75
2022/08/14 07:35:00;;;;;;;3.53;1.67;;;;;;;-145.69;42.64;69846.63;5114326;28;20246;-77
2022/08/14 07:37:27;;;;;;;3.42;1.77;;;;;;;-145.69;41.96;69852.59;5114100;28;20201;-76
2022/08/14 07:39:53;;;;;;;4.00;1.50;;;;;;;-145.69;41.50;69854.59;5109184;28;20556;-77
2022/08/14 07:42:21;;;;;;;2.95;1.60;;;;;;;-145.69;41.38;69844.63;5093666;28;20202;-78
2022/08/14 07:44:47;;;;;;;1.95;1.40;;;;;;;-145.69;41.76;69842.66;5089836;28;20225;-75
2022/08/14 07:47:14;;;;;;;2.58;1.65;;;;;;;-145.69;41.95;69826.72;5093831;28;20194;-77
2022/08/14 07:49:41;;;;;;;5.53;1.50;;;;;;;-145.69;41.31;69814.78;5093066;28;20206;-76
2022/08/14 07:52:09;;;;;;;2.70;1.50;;;;;;;-145.69;41.21;69810.81;5102516;28;20193;-74
2022/08/14 07:54:35;;;;;;;2.20;1.35;;;;;;;-145.69;40.07;69790.94;5096337;28;20259;-75
2022/08/14 07:57:02;;;;;;;5.88;1.63;;;;;;;-145.69;41.02;69782.97;5093445;28;20198;-74
2022/08/14 07:59:28;;;;;;;4.03;1.50;;;;;;;-145.69;40.23;69771.03;5093485;28;20213;-76
2022/08/14 08:01:56;;;;;;;2.72;1.77;;;;;;;-145.69;40.42;69749.16;5093475;28;20202;-77
2022/08/14 08:04:26;;;;;;;2.47;1.50;;;;;;;-145.69;41.34;69743.19;5101769;28;20225;-75
2022/08/14 08:06:53;;;;;;;2.00;1.50;;;;;;;-145.69;40.70;69727.28;5113200;28;20201;-76
2022/08/14 08:09:24;;;;;;;3.80;1.88;;;;;;;-145.69;39.65;69737.22;5111667;28;20202;-76
2022/08/14 08:11:52;;;;;;;1.48;1.35;;;;;;;-145.69;39.39;69727.28;5111808;28;20205;-76
2022/08/14 08:14:19;;;;;;;2.88;1.40;;;;;;;-145.69;39.62;69733.25;5111645;28;20667;-78
2022/08/14 08:16:46;;;;;;;2.25;1.83;;;;;;;-145.69;39.78;69725.28;5098540;28;20202;-75
2022/08/14 08:19:17;;;;;;;3.92;1.73;;;;;;;-145.69;40.93;69733.25;5091488;28;20226;-77
2022/08/14 08:21:44;;;;;;;1.98;1.58;;;;;;;-145.69;40.78;69731.25;5091375;28;20253;-76
2022/08/14 08:24:10;;;;;;;2.53;1.73;;;;;;;-145.69;40.49;69711.38;5093425;28;20226;-77
2022/08/14 08:26:38;;;;;;;2.97;1.63;;;;;;;-145.69;40.39;69711.38;5092476;28;20232;-75
2022/08/14 08:29:05;;;;;;;6.75;1.55;;;;;;;-145.69;39.91;69683.53;5108332;28;20586;-76
2022/08/14 08:31:31;;;;;;;6.85;1.70;;;;;;;-145.69;39.91;69683.53;5113369;28;20576;-74
2022/08/14 08:33:58;;;;;;;3.47;1.52;;;;;;;-145.69;40.09;69667.59;5113359;28;20228;-78
2022/08/14 08:36:24;;;;;;;3.22;1.55;;;;;;;-145.69;39.32;69661.66;5113537;28;20730;-80
2022/08/14 08:38:51;;;;;;;3.22;1.30;;;;;;;-145.69;40.35;69683.53;5113406;28;20598;-76
2022/08/14 08:41:17;;;;;;;1.52;1.27;;;;;;;-145.69;40.24;69657.66;5098880;28;20255;-76
2022/08/14 08:43:45;;;;;;;1.98;1.63;;;;;;;-145.69;39.75;69637.78;5092938;28;20549;-75
2022/08/14 08:46:14;;;;;;;2.22;1.40;;;;;;;-145.69;39.79;69653.69;5092864;28;20695;-75
2022/08/14 08:48:46;;;;;;;1.30;1.20;;;;;;;-145.69;40.16;69621.88;5092746;28;20233;-75
2022/08/14 08:51:22;;;;;;;2.40;1.27;;;;;;;-145.69;39.27;69625.84;5093163;28;20194;-77
2022/08/14 08:53:56;;;;;;;3.53;1.40;;;;;;;-145.69;38.55;69623.84;5072785;28;20245;-77
2022/08/14 08:56:34;;;;;;;1.50;1.33;;;;;;;-145.69;38.07;69631.81;5072601;28;20397;-76
2022/08/14 08:59:02;;;;;;;1.55;1.42;;;;;;;-145.69;39.21;69607.94;5072867;28;20293;-77
2022/08/14 09:01:30;;;;;;;2.00;1.45;;;;;;;-145.69;39.40;69562.19;5087930;28;20201;-77
2022/08/14 09:04:01;;;;;;;1.35;1.25;;;;;;;-145.69;38.52;69544.28;5092721;28;20210;-76
2022/08/14 09:06:28;;;;;;;3.40;1.30;;;;;;;-145.69;37.50;69562.19;5092793;28;20230;-77
2022/08/14 09:08:54;;;;;;;3.00;1.20;;;;;;;-145.69;37.73;69528.38;5092619;28;20221;-76
2022/08/14 09:11:22;;;;;;;1.27;1.15;;;;;;;-145.69;37.44;69528.38;5103036;28;20227;-77
2022/08/14 09:13:50;;;;;;;2.90;1.30;;;;;;;-145.69;37.20;69524.41;5112572;28;20819;-76
2022/08/14 09:16:21;;;;;;;1.40;1.20;;;;;;;-145.69;37.75;69524.41;5113029;28;20241;-74
2022/08/14 09:18:48;;;;;;;3.42;1.50;;;;;;;-145.69;37.68;69532.34;5113132;28;20193;-75
2022/08/14 09:21:15;;;;;;;1.80;1.42;;;;;;;-145.69;37.69;69516.44;5112939;28;20196;-79
2022/08/14 09:23:41;;;;;;;1.75;1.35;;;;;;;-145.69;37.96;69512.47;5099047;28;20230;-75
2022/08/14 09:26:08;;;;;;;1.40;1.25;;;;;;;-145.69;36.46;69494.56;5092697;28;20226;-76
2022/08/14 09:28:34;;;;;;;3.40;1.10;;;;;;;-145.69;36.87;69498.56;5092053;28;20721;-76
2022/08/14 09:31:02;;;;;;;2.30;1.20;;;;;;;-145.69;38.50;69490.59;5092797;28;20204;-77
2022/08/14 09:33:52;;;;;;;1.27;1.17;;;;;;;-145.69;35.13;69504.50;5092595;28;20209;-76
2022/08/14 09:36:42;;;;;;;1.23;1.13;;;;;;;-145.69;35.62;69526.41;5112308;28;20201;-75
2022/08/14 09:39:19;;;;;;;1.33;1.10;;;;;;;-145.69;35.90;69534.34;5116788;28;20210;-75
2022/08/14 09:41:59;;;;;;;1.70;1.00;;;;;;;-145.69;34.36;69534.34;5116703;27;20201;-75
2022/08/14 09:44:41;;;;;;;2.30;1.20;;;;;;;-145.69;34.22;69556.22;5116374;28;20300;-75
2022/08/14 09:47:09;;;;;;;1.48;1.20;;;;;;;-145.69;34.75;69560.22;5104451;28;20222;-76
2022/08/14 09:49:39;;;;;;;1.55;1.13;;;;;;;-145.69;34.57;69552.25;5084817;28;20201;-77
2022/08/14 09:52:09;;;;;;;1.33;1.15;;;;;;;-145.69;34.60;69524.41;5075499;28;20206;-77
2022/08/14 09:54:38;;;;;;;2.35;1.23;;;;;;;-145.69;34.83;69476.66;5075396;28;20194;-76
2022/08/14 09:57:05;;;;;;;2.55;0.80;;;;;;;-145.69;33.37;69464.75;5075798;28;20226;-79
2022/08/14 09:59:40;;;;;;;0.98;0.88;;;;;;;-145.69;32.51;69464.75;5089148;28;20198;-77
2022/08/14 10:02:20;;;;;;;3.00;0.90;;;;;;;-145.69;32.48;69452.81;5096702;28;20537;-76
2022/08/14 10:04:59;;;;;;;1.13;1.00;;;;;;;-145.69;32.55;69424.97;5095510;28;20320;-78
2022/08/14 10:07:31;;;;;;;1.67;1.05;;;;;;;-145.69;31.61;69426.94;5095382;28;20324;-75
2022/08/14 10:09:57;;;;;;;1.10;1.00;;;;;;;-145.69;34.09;69401.09;5095447;28;20292;-76
2022/08/14 10:12:23;;;;;;;1.33;0.77;;;;;;;-145.69;31.38;69397.13;5113674;28;20190;-76
2022/08/14 10:14:50;;;;;;;3.38;1.30;;;;;;;-145.69;30.83;69389.16;5115989;28;20208;-78
2022/08/14 10:17:25;;;;;;;1.20;1.10;;;;;;;-145.69;32.02;69389.16;5087462;28;20203;-75
2022/08/14 10:19:53;;;;;;;1.95;1.10;;;;;;;-145.69;31.85;69385.19;5074921;28;20960;-75
2022/08/14 10:22:27;;;;;;;3.83;1.13;;;;;;;-145.69;32.39;69387.16;5075053;28;20206;-75
2022/08/14 10:24:54;;;;;;;2.30;1.20;;;;;;;-145.69;33.44;69381.19;5114242;28;20652;-76
2022/08/14 10:27:22;;;;;;;1.38;1.00;;;;;;;-145.69;33.92;69373.25;5115594;28;20225;-76
2022/08/14 10:29:50;;;;;;;1.60;1.02;;;;;;;-145.69;32.42;69359.31;5115397;28;20674;-75
2022/08/14 10:32:16;;;;;;;2.47;1.20;;;;;;;-145.69;31.50;69331.47;5115398;28;20219;-76
2022/08/14 10:34:43;;;;;;;2.58;1.05;;;;;;;-145.69;32.74;69333.47;5115551;28;20205;-75
2022/08/14 10:37:15;;;;;;;2.40;1.02;;;;;;;-145.69;31.59;69369.28;5095497;27;20206;-76
2022/08/14 10:39:43;;;;;;;2.08;1.00;;;;;;;-145.69;30.86;69375.25;5094703;28;20737;-75
2022/08/14 10:42:12;;;;;;;2.08;1.17;;;;;;;-145.69;31.12;69373.25;5094960;28;20209;-74
2022/08/14 10:44:40;;;;;;;1.30;1.20;;;;;;;-145.69;31.90;69363.31;5094806;28;20288;-77
2022/08/14 10:47:09;;;;;;;1.52;1.20;;;;;;;-145.69;30.57;69357.34;5094927;28;20253;-81
2022/08/14 10:49:36;;;;;;;2.08;1.20;;;;;;;-145.69;31.17;69347.41;5094340;28;20198;-76
2022/08/14 10:52:08;;;;;;;2.40;1.05;;;;;;;-145.69;31.24;69333.47;5094903;28;20206;-79
2022/08/14 10:54:39;;;;;;;2.60;1.42;;;;;;;-145.69;30.73;69335.47;5094617;28;20607;-77
2022/08/14 10:57:14;;;;;;;2.60;1.17;;;;;;;-145.69;32.38;69299.66;5094603;28;20213;-76
2022/08/14 10:59:46;;;;;;;1.50;1.30;;;;;;;-145.69;31.17;69295.69;5100435;28;20193;-75
2022/08/14 11:02:19;;;;;;;1.30;1.10;;;;;;;-145.69;32.66;69265.84;5114540;28;20347;-75
2022/08/14 11:04:46;;;;;;;1.40;1.30;;;;;;;-145.69;32.14;69230.06;5114701;27;20233;-75
2022/08/14 11:07:14;;;;;;;1.92;1.13;;;;;;;-145.69;31.92;69222.09;5114877;28;20312;-76
2022/08/14 11:09:53;;;;;;;1.45;1.10;;;;;;;-145.69;32.35;69194.25;5114494;28;20201;-75
2022/08/14 11:12:20;;;;;;;1.60;1.40;;;;;;;-145.69;31.48;69178.34;5103943;28;20202;-76
2022/08/14 11:14:51;;;;;;;1.55;1.10;;;;;;;-145.69;30.88;69206.19;5094251;28;20205;-76
2022/08/14 11:17:18;;;;;;;1.80;1.08;;;;;;;-145.69;30.78;69220.13;5094285;28;20198;-78
2022/08/14 11:19:45;;;;;;;1.88;1.23;;;;;;;-145.69;31.81;69222.09;5094358;28;20198;-76
2022/08/14 11:22:14;;;;;;;2.40;1.20;;;;;;;-145.69;31.10;69180.34;5094090;28;20209;-76
2022/08/14 11:24:44;;;;;;;5.43;4.00;;;;;;;-145.69;31.23;69142.56;5094238;28;20240;-75
2022/08/14 11:27:14;;;;;;;1.75;1.10;;;;;;;-145.69;30.26;69154.47;5094151;28;20229;-76
2022/08/14 11:29:43;;;;;;;6.47;4.05;;;;;;;-145.69;29.99;69146.53;5094144;28;20606;-76
2022/08/14 11:32:09;;;;;;;3.08;1.95;;;;;;;-145.69;30.26;69158.47;5093850;28;20644;-76
2022/08/14 11:34:36;;;;;;;2.63;1.40;;;;;;;-145.69;29.51;69146.53;5093977;28;20251;-77
2022/08/14 11:37:08;;;;;;;2.33;1.77;;;;;;;-145.69;30.36;69126.63;5111653;28;20193;-76
2022/08/14 11:39:35;;;;;;;1.27;1.10;;;;;;;-145.69;30.33;69094.81;5106952;28;20554;-76